KPIT

Pittsburgh International Airport

Pittsburgh, Pennsylvania, USA
METAR KPIT 202351Z 11007KT 10SM SCT045 SCT080 BKN250 24/20 A2999 RMK AO2 SLP156 60011 T02390200 10278 20228 53003
Observed Flight Rules
Aug-20 @ 23:51 UTC (17 minutes ago) Visual Flight Rules
Wind Visibility Clouds
110° at 7 knots 10 miles
  • Scattered at 4,500' AGL
  • Scattered at 8,000' AGL
  • Broken at 25,000' AGL
Temperatures Readings
Current 24°C / 75°F
Dewpoint 20°C / 68°F
Humidity 78%
Altimeter 29.99" Hg
Pressure 1015.6 hPa
Elevation 357
METAR KPIT 202351Z 11007KT 10SM SCT045 SCT080 BKN250 24/20 A2999 RMK AO2 SLP156 60011 T02390200 10278 20228 53003
Observed Flight Rules
Aug-20 @ 23:51 UTC
(17 minutes ago)
VFR
Wind Visibility
110° at 7 knots 10 miles
Clouds
  • Scattered at 4,500' AGL
  • Scattered at 8,000' AGL
  • Broken at 25,000' AGL
Temperature Dewpoint
24°C / 75°F 20°C / 68°F
Humidity Altimeter Pressure
78% 29.99" Hg 1015.6 hPa